createdAt,value
2017-08-03T00:00:37.331Z,20.98
2017-08-03T00:01:49.654Z,20.93
2017-08-03T00:03:01.905Z,20.95
2017-08-03T00:04:14.452Z,20.96
2017-08-03T00:05:26.714Z,20.96
2017-08-03T00:06:39.024Z,20.98
2017-08-03T00:07:51.613Z,21
2017-08-03T00:09:04.203Z,20.9
2017-08-03T00:10:16.799Z,20.96
2017-08-03T00:11:29.387Z,21.01
2017-08-03T00:12:42.008Z,21
2017-08-03T00:13:54.624Z,21.04
2017-08-03T00:15:07.225Z,21
2017-08-03T00:16:19.470Z,20.95
2017-08-03T00:17:32.173Z,20.96
2017-08-03T00:18:44.457Z,20.98
2017-08-03T00:19:56.754Z,20.98
2017-08-03T00:21:09.292Z,21.01
2017-08-03T00:22:21.246Z,21.07
2017-08-03T00:23:33.536Z,20.98
2017-08-03T00:24:45.849Z,20.96
2017-08-03T00:25:58.439Z,20.95
2017-08-03T00:27:10.400Z,20.95
2017-08-03T00:28:22.954Z,20.92
2017-08-03T00:29:35.575Z,20.92
2017-08-03T00:30:47.823Z,20.9
2017-08-03T00:32:00.447Z,20.98
2017-08-03T00:33:13.028Z,20.93
2017-08-03T00:34:25.650Z,20.93
2017-08-03T00:35:38.223Z,20.86
2017-08-03T00:36:50.193Z,20.85
2017-08-03T00:38:02.479Z,20.93
2017-08-03T00:39:15.025Z,20.95
2017-08-03T00:40:27.381Z,20.82
2017-08-03T00:41:39.949Z,20.89
2017-08-03T00:42:52.537Z,20.9
2017-08-03T00:44:04.769Z,20.85
2017-08-03T00:45:17.386Z,20.8
2017-08-03T00:46:30.057Z,20.8
2017-08-03T00:47:42.634Z,20.74
2017-08-03T00:48:55.217Z,20.82
2017-08-03T00:50:07.502Z,20.71
2017-08-03T00:51:20.134Z,20.64
2017-08-03T00:52:32.730Z,20.67
2017-08-03T00:53:45.307Z,20.67
2017-08-03T00:54:57.921Z,20.67
2017-08-03T00:56:09.879Z,20.66
2017-08-03T00:57:22.398Z,20.6
2017-08-03T00:58:34.656Z,20.59
2017-08-03T00:59:46.961Z,20.73
2017-08-03T01:00:59.600Z,20.6
2017-08-03T01:02:11.597Z,20.63
2017-08-03T01:03:24.219Z,20.59
2017-08-03T01:04:36.846Z,20.53
2017-08-03T01:05:48.798Z,20.58
2017-08-03T01:07:01.042Z,20.53
2017-08-03T01:08:13.310Z,20.53
2017-08-03T01:09:25.283Z,20.46
2017-08-03T01:10:37.502Z,20.46
2017-08-03T01:11:50.114Z,20.55
2017-08-03T01:13:02.695Z,20.56
2017-08-03T01:14:15.320Z,20.56
2017-08-03T01:15:27.952Z,20.52
2017-08-03T01:16:40.562Z,20.53
2017-08-03T01:17:53.245Z,20.48
2017-08-03T01:19:05.778Z,20.5
2017-08-03T01:20:18.324Z,20.49
2017-08-03T01:21:30.916Z,20.44
2017-08-03T01:22:42.583Z,20.42
2017-08-03T01:23:55.109Z,20.44
2017-08-03T01:25:07.373Z,20.44
2017-08-03T01:26:19.984Z,20.42
2017-08-03T01:27:32.878Z,20.36
2017-08-03T01:28:45.164Z,20.34
2017-08-03T01:29:57.790Z,20.37
2017-08-03T01:31:10.411Z,20.39
2017-08-03T01:32:23.006Z,20.37
2017-08-03T01:33:35.608Z,20.39
2017-08-03T01:34:47.575Z,20.39
2017-08-03T01:36:00.183Z,20.33
2017-08-03T01:37:12.772Z,20.37
2017-08-03T01:38:25.370Z,20.3
2017-08-03T01:39:37.956Z,20.27
2017-08-03T01:40:50.598Z,20.32
2017-08-03T01:42:03.187Z,20.19
2017-08-03T01:43:15.472Z,20.22
2017-08-03T01:44:28.054Z,20.26
2017-08-03T01:45:40.609Z,20.15
2017-08-03T01:46:53.230Z,20.21
2017-08-03T01:48:05.476Z,20.24
2017-08-03T01:49:18.089Z,20.19
2017-08-03T01:50:30.426Z,20.24
2017-08-03T01:51:42.415Z,20.18
2017-08-03T01:52:54.686Z,20.17
2017-08-03T01:54:07.254Z,20.14
2017-08-03T01:55:19.812Z,20.19
2017-08-03T01:56:32.469Z,20.15
2017-08-03T01:57:45.051Z,20.14
2017-08-03T01:58:57.565Z,20.15
2017-08-03T02:00:09.511Z,20.1
2017-08-03T02:01:22.131Z,20.08
2017-08-03T02:02:34.752Z,20.04
2017-08-03T02:03:47.053Z,20.11
2017-08-03T02:04:59.060Z,20
2017-08-03T02:06:11.299Z,19.94
2017-08-03T02:07:23.611Z,19.94
2017-08-03T02:08:36.161Z,19.85
2017-08-03T02:09:48.753Z,19.96
2017-08-03T02:11:01.371Z,19.93
2017-08-03T02:12:13.619Z,19.92
2017-08-03T02:13:25.931Z,19.85
2017-08-03T02:14:38.557Z,19.89
2017-08-03T02:15:50.624Z,19.9
2017-08-03T02:17:03.237Z,19.85
2017-08-03T02:18:15.853Z,19.9
2017-08-03T02:19:28.193Z,19.9
2017-08-03T02:20:40.825Z,19.82
2017-08-03T02:21:53.327Z,19.89
2017-08-03T02:23:05.906Z,19.85
2017-08-03T02:24:18.235Z,19.89
2017-08-03T02:25:30.550Z,19.85
2017-08-03T02:26:42.543Z,19.84
2017-08-03T02:27:55.191Z,19.89
2017-08-03T02:29:07.753Z,19.85
2017-08-03T02:30:20.324Z,19.85
2017-08-03T02:31:32.571Z,19.9
2017-08-03T02:32:45.104Z,19.84
2017-08-03T02:33:57.745Z,19.87
2017-08-03T02:35:10.340Z,19.85
2017-08-03T02:36:22.588Z,19.87
2017-08-03T02:37:35.160Z,19.9
2017-08-03T02:38:47.796Z,19.85
2017-08-03T02:40:00.337Z,19.84
2017-08-03T02:41:12.668Z,19.87
2017-08-03T02:42:25.259Z,19.9
2017-08-03T02:43:37.861Z,19.75
2017-08-03T02:44:50.450Z,19.82
2017-08-03T02:46:02.739Z,19.84
2017-08-03T02:47:15.360Z,19.89
2017-08-03T02:48:28.027Z,19.78
2017-08-03T02:49:40.321Z,19.85
2017-08-03T02:50:52.886Z,19.79
2017-08-03T02:52:05.544Z,19.87
2017-08-03T02:53:18.109Z,19.85
2017-08-03T02:54:30.398Z,19.82
2017-08-03T02:55:42.688Z,19.79
2017-08-03T02:56:55.259Z,19.78
2017-08-03T02:58:07.555Z,19.84
2017-08-03T02:59:19.788Z,19.77
2017-08-03T03:00:32.080Z,19.74
2017-08-03T03:01:44.606Z,19.71
2017-08-03T03:02:57.263Z,19.67
2017-08-03T03:04:09.866Z,19.66
2017-08-03T03:05:22.162Z,19.74
2017-08-03T03:06:34.713Z,19.74
2017-08-03T03:07:47.333Z,19.71
2017-08-03T03:08:59.981Z,19.74
2017-08-03T03:10:12.574Z,19.67
2017-08-03T03:11:25.153Z,19.64
2017-08-03T03:12:37.798Z,19.64
2017-08-03T03:13:50.134Z,19.66
2017-08-03T03:15:02.712Z,19.72
2017-08-03T03:16:15.605Z,19.6
2017-08-03T03:17:27.950Z,19.6
2017-08-03T03:18:40.494Z,19.64
2017-08-03T03:19:52.990Z,19.59
2017-08-03T03:21:05.497Z,19.59
2017-08-03T03:22:18.017Z,19.63
2017-08-03T03:23:30.328Z,19.62
2017-08-03T03:24:42.958Z,19.63
2017-08-03T03:25:55.544Z,19.62
2017-08-03T03:27:07.831Z,19.59
2017-08-03T03:28:20.460Z,19.62
2017-08-03T03:29:33.006Z,19.63
2017-08-03T03:30:45.652Z,19.59
2017-08-03T03:31:58.254Z,19.63
2017-08-03T03:33:10.855Z,19.64
2017-08-03T03:34:23.457Z,19.55
2017-08-03T03:35:35.740Z,19.62
2017-08-03T03:36:48.034Z,19.59
2017-08-03T03:38:00.021Z,19.59
2017-08-03T03:39:12.297Z,19.63
2017-08-03T03:40:24.655Z,19.63
2017-08-03T03:41:36.641Z,19.6
2017-08-03T03:42:49.260Z,19.57
2017-08-03T03:44:01.810Z,19.59
2017-08-03T03:45:14.362Z,19.55
2017-08-03T03:46:26.960Z,19.52
2017-08-03T03:47:39.275Z,19.55
2017-08-03T03:48:51.877Z,19.53
2017-08-03T03:50:03.843Z,19.52
2017-08-03T03:51:16.482Z,19.55
2017-08-03T03:52:28.757Z,19.6
2017-08-03T03:53:41.426Z,19.57
2017-08-03T03:54:53.396Z,19.55
2017-08-03T03:56:05.690Z,19.57
2017-08-03T03:57:18.267Z,19.57
2017-08-03T03:58:30.521Z,19.59
2017-08-03T03:59:43.105Z,19.57
2017-08-03T04:00:55.725Z,19.63
2017-08-03T04:02:08.020Z,19.62
2017-08-03T04:03:20.645Z,19.6
2017-08-03T04:04:32.941Z,19.59
2017-08-03T04:05:45.265Z,19.63
2017-08-03T04:06:57.507Z,19.72
2017-08-03T04:08:10.031Z,19.66
2017-08-03T04:09:22.396Z,19.67
2017-08-03T04:10:34.940Z,19.77
2017-08-03T04:11:46.888Z,19.66
2017-08-03T04:12:59.463Z,19.66
2017-08-03T04:14:12.071Z,19.81
2017-08-03T04:15:24.654Z,19.77
2017-08-03T04:16:36.950Z,19.7
2017-08-03T04:17:49.236Z,19.78
2017-08-03T04:19:01.825Z,19.82
2017-08-03T04:20:14.339Z,19.84
2017-08-03T04:21:27.143Z,19.85
2017-08-03T04:22:39.538Z,19.78
2017-08-03T04:23:51.839Z,19.82
2017-08-03T04:25:04.124Z,19.84
2017-08-03T04:26:16.700Z,19.99
2017-08-03T04:27:29.021Z,19.9
2017-08-03T04:28:41.299Z,19.96
2017-08-03T04:29:53.844Z,20.04
2017-08-03T04:31:06.173Z,20.03
2017-08-03T04:32:18.483Z,20.08
2017-08-03T04:33:31.033Z,20.02
2017-08-03T04:34:43.638Z,20.11
2017-08-03T04:35:56.209Z,20.08
2017-08-03T04:37:08.210Z,20.18
2017-08-03T04:38:20.551Z,20.14
2017-08-03T04:39:33.123Z,20.15
2017-08-03T04:40:45.396Z,20.15
2017-08-03T04:41:57.943Z,20.21
2017-08-03T04:43:10.532Z,20.21
2017-08-03T04:44:23.153Z,20.24
2017-08-03T04:45:35.385Z,20.22
2017-08-03T04:46:48.006Z,20.22
2017-08-03T04:48:00.022Z,20.39
2017-08-03T04:49:12.600Z,20.32
2017-08-03T04:50:24.932Z,20.49
2017-08-03T04:51:37.196Z,20.39
2017-08-03T04:52:49.761Z,20.44
2017-08-03T04:54:02.095Z,20.42
2017-08-03T04:55:14.415Z,20.44
2017-08-03T04:56:26.737Z,20.52
2017-08-03T04:57:39.312Z,20.4
2017-08-03T04:58:51.857Z,20.49
2017-08-03T05:00:04.425Z,20.46
2017-08-03T05:01:17.074Z,20.39
2017-08-03T05:02:29.391Z,20.44
2017-08-03T05:03:41.661Z,20.36
2017-08-03T05:04:53.942Z,20.4
2017-08-03T05:06:06.623Z,20.44
2017-08-03T05:07:19.155Z,20.44
2017-08-03T05:08:31.775Z,20.46
2017-08-03T05:09:44.027Z,20.55
2017-08-03T05:10:56.636Z,20.55
2017-08-03T05:12:08.895Z,20.58
2017-08-03T05:13:21.472Z,20.6
2017-08-03T05:14:33.738Z,20.7
2017-08-03T05:15:45.990Z,20.75
2017-08-03T05:16:58.193Z,20.75
2017-08-03T05:18:10.488Z,20.78
2017-08-03T05:19:22.735Z,20.8
2017-08-03T05:20:35.358Z,20.85
2017-08-03T05:21:47.979Z,20.8
2017-08-03T05:23:00.564Z,20.78
2017-08-03T05:24:12.860Z,20.92
2017-08-03T05:25:25.398Z,20.92
2017-08-03T05:26:38.014Z,20.93
2017-08-03T05:27:50.306Z,21.07
2017-08-03T05:29:02.958Z,20.93
2017-08-03T05:30:15.521Z,21.04
2017-08-03T05:31:27.519Z,21.1
2017-08-03T05:32:40.125Z,21.17
2017-08-03T05:33:52.384Z,21.15
2017-08-03T05:35:04.583Z,21.25
2017-08-03T05:36:17.176Z,21.28
2017-08-03T05:37:29.809Z,21.22
2017-08-03T05:38:42.433Z,21.26
2017-08-03T05:39:54.740Z,21.32
2017-08-03T05:41:07.036Z,21.33
2017-08-03T05:42:19.607Z,21.32
2017-08-03T05:43:32.527Z,21.48
2017-08-03T05:44:44.833Z,21.53
2017-08-03T05:45:56.526Z,21.56
2017-08-03T05:47:08.833Z,21.62
2017-08-03T05:48:21.098Z,21.7
2017-08-03T05:49:33.748Z,21.77
2017-08-03T05:50:45.997Z,21.8
2017-08-03T05:51:58.275Z,21.88
2017-08-03T05:53:10.523Z,21.89
2017-08-03T05:54:23.128Z,21.88
2017-08-03T05:55:35.768Z,22
2017-08-03T05:56:48.382Z,22.06
2017-08-03T05:58:00.627Z,22.12
2017-08-03T05:59:13.481Z,22.22
2017-08-03T06:00:26.080Z,22.28
2017-08-03T06:01:38.734Z,22.36
2017-08-03T06:02:51.361Z,22.46
2017-08-03T06:04:03.920Z,22.59
2017-08-03T06:05:16.539Z,22.67
2017-08-03T06:06:28.829Z,22.78
2017-08-03T06:07:41.124Z,22.96
2017-08-03T06:08:53.425Z,23.01
2017-08-03T06:10:05.711Z,23.14
2017-08-03T06:11:18.026Z,23.2
2017-08-03T06:12:30.687Z,23.21
2017-08-03T06:13:43.051Z,23.17
2017-08-03T06:14:55.600Z,23.32
2017-08-03T06:16:07.568Z,23.36
2017-08-03T06:17:20.150Z,23.34
2017-08-03T06:18:32.827Z,23.45
2017-08-03T06:19:45.404Z,23.51
2017-08-03T06:20:57.707Z,23.48
2017-08-03T06:22:10.247Z,23.55
2017-08-03T06:23:22.841Z,23.64
2017-08-03T06:24:35.517Z,23.64
2017-08-03T06:25:48.117Z,23.66
2017-08-03T06:27:00.431Z,23.79
2017-08-03T06:28:12.087Z,23.88
2017-08-03T06:29:24.448Z,24.03
2017-08-03T06:30:37.007Z,24.25
2017-08-03T06:31:49.581Z,24.29
2017-08-03T06:33:02.187Z,24.43
2017-08-03T06:34:14.745Z,24.61
2017-08-03T06:35:26.751Z,24.79
2017-08-03T06:36:39.366Z,24.93
2017-08-03T06:37:51.341Z,25.01
2017-08-03T06:39:03.396Z,25.24
2017-08-03T06:40:16.054Z,25.33
2017-08-03T06:41:28.362Z,25.44
2017-08-03T06:42:41.270Z,25.58
2017-08-03T06:43:53.591Z,25.59
2017-08-03T06:45:05.612Z,25.51
2017-08-03T06:46:18.243Z,25.59
2017-08-03T06:47:30.847Z,25.59
2017-08-03T06:48:43.419Z,25.62
2017-08-03T06:49:56.039Z,25.71
2017-08-03T06:51:08.675Z,25.68
2017-08-03T06:52:20.956Z,25.76
2017-08-03T06:53:32.958Z,25.81
2017-08-03T06:54:45.554Z,25.78
2017-08-03T06:55:57.808Z,25.74
2017-08-03T06:57:10.378Z,25.74
2017-08-03T06:58:22.929Z,25.81
2017-08-03T06:59:35.597Z,25.86
2017-08-03T07:00:48.222Z,25.83
2017-08-03T07:02:00.260Z,25.77
2017-08-03T07:03:12.540Z,25.85
2017-08-03T07:04:25.222Z,25.91
2017-08-03T07:05:37.505Z,25.98
2017-08-03T07:06:50.099Z,25.95
2017-08-03T07:08:02.367Z,25.95
2017-08-03T07:09:14.312Z,26.07
2017-08-03T07:10:26.876Z,26.13
2017-08-03T07:11:39.185Z,26.11
2017-08-03T07:12:51.763Z,26.07
2017-08-03T07:14:04.352Z,26.1
2017-08-03T07:15:16.966Z,26.1
2017-08-03T07:16:29.487Z,26.15
2017-08-03T07:17:41.800Z,26.24
2017-08-03T07:18:53.783Z,26.24
2017-08-03T07:20:06.360Z,26.33
2017-08-03T07:21:18.640Z,26.34
2017-08-03T07:22:31.267Z,26.39
2017-08-03T07:23:43.865Z,26.42
2017-08-03T07:24:55.544Z,26.49
2017-08-03T07:26:07.560Z,26.51
2017-08-03T07:27:20.153Z,26.51
2017-08-03T07:28:32.758Z,26.51
2017-08-03T07:29:45.418Z,26.51
2017-08-03T07:30:58.012Z,26.51
2017-08-03T07:32:09.984Z,26.51
2017-08-03T07:33:22.581Z,26.52
2017-08-03T07:34:35.177Z,26.55
2017-08-03T07:35:47.501Z,26.52
2017-08-03T07:36:59.793Z,26.44
2017-08-03T07:38:11.188Z,26.52
2017-08-03T07:39:23.812Z,26.55
2017-08-03T07:40:36.069Z,26.53
2017-08-03T07:41:48.605Z,26.6
2017-08-03T07:43:00.258Z,26.64
2017-08-03T07:44:12.547Z,26.74
2017-08-03T07:45:25.062Z,26.74
2017-08-03T07:46:37.364Z,26.83
2017-08-03T07:47:49.661Z,26.93
2017-08-03T07:49:02.271Z,26.92
2017-08-03T07:50:14.227Z,26.91
2017-08-03T07:51:26.794Z,26.93
2017-08-03T07:52:39.382Z,26.81
2017-08-03T07:53:52.037Z,26.93
2017-08-03T07:55:04.266Z,26.86
2017-08-03T07:56:16.540Z,26.85
2017-08-03T07:57:29.066Z,26.85
2017-08-03T07:58:41.637Z,26.92
2017-08-03T07:59:53.883Z,26.98
2017-08-03T08:01:06.462Z,26.96
2017-08-03T08:02:18.779Z,27.01
2017-08-03T08:03:31.082Z,26.98
2017-08-03T08:04:43.379Z,27.04
2017-08-03T08:05:55.647Z,27.04
2017-08-03T08:07:07.965Z,27.01
2017-08-03T08:08:19.927Z,27
2017-08-03T08:09:32.564Z,27.03
2017-08-03T08:10:45.230Z,26.85
2017-08-03T08:11:57.499Z,26.98
2017-08-03T08:13:09.769Z,26.96
2017-08-03T08:14:22.049Z,26.93
2017-08-03T08:15:34.340Z,26.97
2017-08-03T08:16:46.987Z,26.96
2017-08-03T08:17:59.555Z,27.05
2017-08-03T08:19:12.124Z,27
2017-08-03T08:20:24.725Z,27.15
2017-08-03T08:21:37.009Z,27.04
2017-08-03T08:22:48.688Z,27.08
2017-08-03T08:24:00.083Z,27.19
2017-08-03T08:25:12.361Z,27.2
2017-08-03T08:26:24.926Z,27.11
2017-08-03T08:27:37.199Z,27.11
2017-08-03T08:28:49.171Z,27.22
2017-08-03T08:30:01.164Z,27.25
2017-08-03T08:31:13.546Z,27.2
2017-08-03T08:32:26.159Z,27.22
2017-08-03T08:33:38.738Z,27.23
2017-08-03T08:34:50.452Z,27.26
2017-08-03T08:36:03.069Z,27.2
2017-08-03T08:37:15.607Z,27.29
2017-08-03T08:38:27.909Z,27.22
2017-08-03T08:39:39.299Z,27.11
2017-08-03T08:40:51.619Z,27.1
2017-08-03T08:42:04.009Z,27.15
2017-08-03T08:43:16.622Z,27.08
2017-08-03T08:44:29.251Z,27.04
2017-08-03T08:45:41.821Z,27.05
2017-08-03T08:46:54.060Z,27
2017-08-03T08:48:06.628Z,27
2017-08-03T08:49:19.277Z,26.97
2017-08-03T08:50:31.575Z,26.92
2017-08-03T08:51:43.891Z,26.92
2017-08-03T08:52:56.449Z,26.83
2017-08-03T08:54:09.107Z,26.76
2017-08-03T08:55:21.689Z,26.7
2017-08-03T08:56:34.325Z,26.73
2017-08-03T08:57:46.648Z,26.6
2017-08-03T08:58:59.225Z,26.55
2017-08-03T09:00:11.868Z,26.51
2017-08-03T09:01:24.536Z,26.53
2017-08-03T09:02:36.809Z,26.51
2017-08-03T09:03:48.511Z,26.39
2017-08-03T09:05:00.775Z,26.41
2017-08-03T09:06:12.720Z,26.37
2017-08-03T09:07:24.690Z,26.22
2017-08-03T09:08:37.275Z,26.34
2017-08-03T09:09:49.821Z,26.18
2017-08-03T09:11:02.429Z,26.27
2017-08-03T09:12:14.721Z,26.29
2017-08-03T09:13:26.998Z,26.23
2017-08-03T09:14:39.678Z,26.24
2017-08-03T09:15:51.672Z,26.3
2017-08-03T09:17:04.255Z,26.33
2017-08-03T09:18:16.262Z,26.34
2017-08-03T09:19:28.524Z,26.31
2017-08-03T09:20:40.535Z,26.33
2017-08-03T09:21:52.795Z,26.29
2017-08-03T09:23:05.110Z,26.24
2017-08-03T09:24:17.673Z,26.29
2017-08-03T09:25:30.306Z,26.24
2017-08-03T09:26:42.982Z,26.34
2017-08-03T09:27:55.523Z,26.31
2017-08-03T09:29:07.838Z,26.3
2017-08-03T09:30:20.127Z,26.27
2017-08-03T09:31:32.409Z,26.22
2017-08-03T09:32:44.967Z,26.22
2017-08-03T09:33:56.931Z,26.23
2017-08-03T09:35:09.593Z,26.27
2017-08-03T09:36:22.176Z,26.24
2017-08-03T09:37:34.744Z,26.24
2017-08-03T09:38:46.782Z,26.24
2017-08-03T09:39:59.030Z,26.24
2017-08-03T09:41:11.366Z,26.23
2017-08-03T09:42:23.919Z,26.16
2017-08-03T09:43:36.488Z,26.23
2017-08-03T09:44:49.086Z,26.33
2017-08-03T09:46:01.058Z,26.36
2017-08-03T09:47:13.656Z,26.31
2017-08-03T09:48:26.248Z,26.41
2017-08-03T09:49:38.187Z,26.31
2017-08-03T09:50:50.138Z,26.36
2017-08-03T09:52:02.721Z,26.41
2017-08-03T09:53:14.446Z,26.41
2017-08-03T09:54:27.037Z,26.34
2017-08-03T09:55:39.676Z,26.33
2017-08-03T09:56:51.351Z,26.37
2017-08-03T09:58:03.652Z,26.37
2017-08-03T09:59:16.240Z,26.31
2017-08-03T10:00:28.560Z,26.29
2017-08-03T10:01:41.197Z,26.31
2017-08-03T10:02:53.476Z,26.22
2017-08-03T10:04:05.123Z,26.36
2017-08-03T10:05:17.761Z,26.18
2017-08-03T10:06:30.318Z,26.31
2017-08-03T10:07:42.333Z,26.26
2017-08-03T10:08:54.279Z,26.23
2017-08-03T10:10:06.560Z,26.27
2017-08-03T10:11:18.847Z,26.18
2017-08-03T10:12:31.454Z,26.29
2017-08-03T10:13:44.068Z,26.36
2017-08-03T10:14:56.637Z,26.34
2017-08-03T10:16:09.179Z,26.42
2017-08-03T10:17:21.750Z,26.42
2017-08-03T10:18:34.358Z,26.46
2017-08-03T10:19:46.929Z,26.44
2017-08-03T10:20:58.913Z,26.49
2017-08-03T10:22:11.112Z,26.45
2017-08-03T10:23:23.383Z,26.49
2017-08-03T10:24:35.652Z,26.52
2017-08-03T10:25:47.950Z,26.48
2017-08-03T10:27:00.029Z,26.52
2017-08-03T10:28:12.614Z,26.52
2017-08-03T10:29:24.935Z,26.55
2017-08-03T10:30:37.557Z,26.52
2017-08-03T10:31:49.883Z,26.53
2017-08-03T10:33:02.121Z,26.55
2017-08-03T10:34:14.408Z,26.67
2017-08-03T10:35:27.019Z,26.59
2017-08-03T10:36:39.268Z,26.66
2017-08-03T10:37:51.789Z,26.68
2017-08-03T10:39:04.402Z,26.74
2017-08-03T10:40:16.423Z,26.79
2017-08-03T10:41:29.284Z,26.96
2017-08-03T10:42:41.346Z,26.98
2017-08-03T10:43:53.667Z,27.04
2017-08-03T10:45:05.636Z,27.19
2017-08-03T10:46:18.195Z,27.26
2017-08-03T10:47:30.477Z,27.47
2017-08-03T10:48:43.031Z,27.66
2017-08-03T10:49:55.027Z,27.81
2017-08-03T10:51:07.044Z,28
2017-08-03T10:52:19.118Z,28.16
2017-08-03T10:53:31.754Z,28.38
2017-08-03T10:54:44.349Z,28.57
2017-08-03T10:55:56.619Z,28.68
2017-08-03T10:57:08.933Z,28.74
2017-08-03T10:58:21.598Z,28.9
2017-08-03T10:59:33.912Z,28.92
2017-08-03T11:00:46.191Z,28.94
2017-08-03T11:01:58.836Z,28.96
2017-08-03T11:03:11.421Z,29
2017-08-03T11:04:24.078Z,29
2017-08-03T11:05:36.685Z,28.92
2017-08-03T11:06:48.910Z,28.83
2017-08-03T11:08:00.889Z,28.77
2017-08-03T11:09:13.256Z,28.7
2017-08-03T11:10:25.839Z,28.7
2017-08-03T11:11:37.822Z,28.7
2017-08-03T11:12:50.155Z,28.62
2017-08-03T11:14:02.426Z,28.65
2017-08-03T11:15:15.022Z,28.57
2017-08-03T11:16:27.654Z,28.53
2017-08-03T11:17:39.944Z,28.41
2017-08-03T11:18:52.197Z,28.37
2017-08-03T11:20:04.417Z,28.41
2017-08-03T11:21:17.092Z,28.41
2017-08-03T11:22:29.159Z,28.41
2017-08-03T11:23:41.418Z,28.46
2017-08-03T11:24:53.689Z,28.47
2017-08-03T11:26:06.279Z,28.47
2017-08-03T11:27:18.974Z,28.55
2017-08-03T11:28:31.589Z,28.52
2017-08-03T11:29:43.906Z,28.52
2017-08-03T11:30:55.888Z,28.56
2017-08-03T11:32:08.503Z,28.68
2017-08-03T11:33:21.193Z,28.68
2017-08-03T11:34:33.832Z,28.64
2017-08-03T11:35:46.153Z,28.77
2017-08-03T11:36:58.108Z,28.71
2017-08-03T11:38:10.386Z,28.8
2017-08-03T11:39:23.066Z,28.87
2017-08-03T11:40:35.695Z,28.89
2017-08-03T11:41:47.933Z,28.92
2017-08-03T11:43:00.165Z,29.05
2017-08-03T11:44:11.832Z,29.05
2017-08-03T11:45:24.389Z,29.09
2017-08-03T11:46:36.947Z,29.02
2017-08-03T11:47:49.286Z,29.03
2017-08-03T11:49:01.591Z,29.1
2017-08-03T11:50:14.216Z,29.05
2017-08-03T11:51:26.806Z,29.05
2017-08-03T11:52:39.038Z,29.12
2017-08-03T11:53:51.649Z,29.12
2017-08-03T11:55:03.925Z,29.28
2017-08-03T11:56:16.520Z,29.28
2017-08-03T11:57:29.110Z,29.39
2017-08-03T11:58:41.410Z,29.35
2017-08-03T11:59:53.402Z,29.52
2017-08-03T12:01:05.399Z,29.53
2017-08-03T12:02:17.969Z,29.58
2017-08-03T12:03:30.270Z,29.5
2017-08-03T12:04:42.923Z,29.47
2017-08-03T12:05:55.511Z,29.58
2017-08-03T12:07:07.815Z,29.47
2017-08-03T12:08:20.374Z,29.68
2017-08-03T12:09:32.706Z,29.79
2017-08-03T12:10:45.377Z,29.71
2017-08-03T12:11:57.979Z,29.76
2017-08-03T12:13:10.251Z,29.79
2017-08-03T12:14:22.822Z,29.89
2017-08-03T12:15:35.486Z,29.79
2017-08-03T12:16:47.771Z,29.84
2017-08-03T12:18:00.099Z,29.89
2017-08-03T12:19:12.656Z,29.86
2017-08-03T12:20:24.665Z,29.87
2017-08-03T12:21:37.307Z,29.9
2017-08-03T12:22:49.905Z,29.99
2017-08-03T12:24:02.455Z,29.94
2017-08-03T12:25:14.096Z,29.96
2017-08-03T12:26:26.669Z,29.92
2017-08-03T12:27:39.021Z,29.89
2017-08-03T12:28:51.022Z,29.9
2017-08-03T12:30:03.093Z,29.92
2017-08-03T12:31:15.374Z,29.95
2017-08-03T12:32:27.643Z,29.8
2017-08-03T12:33:40.246Z,29.8
2017-08-03T12:34:52.802Z,29.87
2017-08-03T12:36:05.122Z,29.92
2017-08-03T12:37:16.868Z,29.9
2017-08-03T12:38:29.164Z,29.95
2017-08-03T12:39:41.745Z,29.86
2017-08-03T12:40:54.239Z,29.9
2017-08-03T12:42:06.803Z,29.95
2017-08-03T12:43:18.781Z,30.03
2017-08-03T12:44:31.139Z,30.11
2017-08-03T12:45:43.437Z,30.27
2017-08-03T12:46:56.022Z,30.29
2017-08-03T12:48:08.325Z,30.46
2017-08-03T12:49:20.646Z,30.4
2017-08-03T12:50:33.250Z,30.44
2017-08-03T12:51:45.809Z,30.4
2017-08-03T12:52:58.141Z,30.44
2017-08-03T12:54:10.126Z,30.46
2017-08-03T12:55:22.789Z,30.43
2017-08-03T12:56:34.517Z,30.32
2017-08-03T12:57:47.107Z,30.33
2017-08-03T12:58:59.055Z,30.23
2017-08-03T13:00:11.676Z,30.31
2017-08-03T13:01:24.013Z,30.31
2017-08-03T13:02:36.364Z,30.33
2017-08-03T13:03:48.928Z,30.35
2017-08-03T13:05:00.884Z,30.43
2017-08-03T13:06:13.196Z,30.4
2017-08-03T13:07:25.562Z,30.69
2017-08-03T13:08:37.823Z,30.92
2017-08-03T13:09:50.379Z,31.07
2017-08-03T13:11:02.694Z,31.18
2017-08-03T13:12:15.019Z,31.17
2017-08-03T13:13:27.272Z,31.32
2017-08-03T13:14:39.516Z,31.42
2017-08-03T13:15:51.797Z,31.66
2017-08-03T13:17:03.789Z,31.92
2017-08-03T13:18:16.113Z,32.12
2017-08-03T13:19:28.763Z,32.31
2017-08-03T13:20:41.422Z,32.53
2017-08-03T13:21:53.399Z,32.66
2017-08-03T13:23:05.964Z,32.61
2017-08-03T13:24:18.277Z,32.82
2017-08-03T13:25:30.903Z,32.73
2017-08-03T13:26:43.548Z,32.93
2017-08-03T13:27:56.157Z,32.88
2017-08-03T13:29:08.480Z,32.97
2017-08-03T13:30:21.121Z,32.94
2017-08-03T13:31:33.184Z,32.97
2017-08-03T13:32:45.148Z,32.88
2017-08-03T13:33:57.684Z,32.86
2017-08-03T13:35:09.993Z,32.86
2017-08-03T13:36:22.002Z,32.83
2017-08-03T13:37:34.547Z,32.79
2017-08-03T13:38:46.812Z,32.82
2017-08-03T13:39:59.112Z,32.78
2017-08-03T13:41:11.416Z,32.73
2017-08-03T13:42:23.382Z,32.71
2017-08-03T13:43:36.036Z,32.63
2017-08-03T13:44:48.350Z,32.49
2017-08-03T13:46:00.972Z,32.46
2017-08-03T13:47:13.341Z,32.49
2017-08-03T13:48:25.969Z,32.46
2017-08-03T13:49:38.286Z,32.49
2017-08-03T13:50:50.528Z,32.42
2017-08-03T13:52:02.773Z,32.41
2017-08-03T13:53:14.177Z,32.34
2017-08-03T13:54:26.494Z,32.44
2017-08-03T13:55:39.087Z,32.42
2017-08-03T13:56:51.068Z,32.67
2017-08-03T13:58:03.381Z,32.79
2017-08-03T13:59:16.035Z,32.88
2017-08-03T14:00:28.630Z,32.98
2017-08-03T14:01:40.966Z,33.15
2017-08-03T14:02:53.273Z,33.39
2017-08-03T14:04:05.575Z,33.39
2017-08-03T14:05:18.096Z,33.47
2017-08-03T14:06:30.403Z,33.4
2017-08-03T14:07:42.975Z,33.45
2017-08-03T14:08:55.600Z,33.35
2017-08-03T14:10:07.947Z,33.45
2017-08-03T14:11:20.251Z,33.36
2017-08-03T14:12:32.929Z,33.4
2017-08-03T14:13:45.178Z,33.44
2017-08-03T14:14:57.497Z,33.42
2017-08-03T14:16:09.784Z,33.53
2017-08-03T14:17:22.405Z,33.48
2017-08-03T14:18:35.289Z,33.7
2017-08-03T14:19:47.053Z,33.7
2017-08-03T14:20:59.080Z,33.73
2017-08-03T14:22:11.664Z,33.91
2017-08-03T14:23:23.980Z,33.85
2017-08-03T14:24:36.290Z,33.87
2017-08-03T14:25:48.928Z,33.92
2017-08-03T14:27:00.598Z,34
2017-08-03T14:28:12.889Z,33.92
2017-08-03T14:29:25.500Z,33.95
2017-08-03T14:30:38.072Z,34.04
2017-08-03T14:31:50.675Z,34.07
2017-08-03T14:33:02.928Z,34.14
2017-08-03T14:34:15.517Z,34.19
2017-08-03T14:35:28.150Z,34.22
2017-08-03T14:36:40.539Z,34.32
2017-08-03T14:37:52.876Z,34.31
2017-08-03T14:39:05.482Z,34.25
2017-08-03T14:40:17.802Z,34.16
2017-08-03T14:41:30.381Z,34.18
2017-08-03T14:42:42.719Z,34.06
2017-08-03T14:43:54.666Z,33.95
2017-08-03T14:45:07.013Z,33.73
2017-08-03T14:46:19.343Z,33.55
2017-08-03T14:47:31.984Z,33.44
2017-08-03T14:48:44.258Z,33.33
2017-08-03T14:49:56.559Z,33.05
2017-08-03T14:51:09.229Z,32.88
2017-08-03T14:52:21.887Z,32.75
2017-08-03T14:53:34.545Z,32.67
2017-08-03T14:54:47.089Z,32.45
2017-08-03T14:55:59.681Z,32.39
2017-08-03T14:57:12.021Z,32.26
2017-08-03T14:58:24.599Z,32.07
2017-08-03T14:59:37.220Z,31.98
2017-08-03T15:00:49.878Z,31.82
2017-08-03T15:02:02.190Z,31.64
2017-08-03T15:03:14.843Z,31.55
2017-08-03T15:04:27.129Z,31.42
2017-08-03T15:05:39.444Z,31.3
2017-08-03T15:06:52.044Z,31.13
2017-08-03T15:08:04.408Z,31.02
2017-08-03T15:09:17.014Z,30.92
2017-08-03T15:10:29.350Z,30.92
2017-08-03T15:11:41.981Z,30.78
2017-08-03T15:12:54.561Z,30.59
2017-08-03T15:14:06.897Z,30.48
2017-08-03T15:15:19.534Z,30.33
2017-08-03T15:16:32.143Z,30.17
2017-08-03T15:17:44.443Z,30.05
2017-08-03T15:18:57.042Z,29.94
2017-08-03T15:20:09.430Z,29.76
2017-08-03T15:21:22.000Z,29.69
2017-08-03T15:22:33.980Z,29.61
2017-08-03T15:23:46.540Z,29.4
2017-08-03T15:24:58.851Z,29.16
2017-08-03T15:26:11.422Z,29.02
2017-08-03T15:27:24.018Z,28.78
2017-08-03T15:28:36.553Z,28.47
2017-08-03T15:29:48.876Z,28.2
2017-08-03T15:31:01.217Z,27.82
2017-08-03T15:32:13.826Z,27.28
2017-08-03T15:33:26.134Z,26.83
2017-08-03T15:34:38.694Z,26.3
2017-08-03T15:35:51.319Z,25.83
2017-08-03T15:37:02.999Z,25.39